Time;durP1;ratioP1;P1;durP2;ratioP2;P2;SDS_P1;SDS_P2;PMS_P1;PMS_P2;Temp;Humidity;BMP_temperature;BMP_pressure;BME280_temperature;BME280_humidity;BME280_pressure;Samples;Min_cycle;Max_cycle;Signal;HPM_P1;HPM_P2
2022/11/17 00:01:53;;;;;;;10.05;3.90;;;;;;;8.81;100.00;98475.28;5043955;28;20029;-43
2022/11/17 00:04:18;;;;;;;10.10;3.90;;;;;;;8.81;100.00;98500.25;5042730;28;20059;-43
2022/11/17 00:06:43;;;;;;;15.35;4.05;;;;;;;8.77;100.00;98489.16;5037032;28;20026;-45
2022/11/17 00:09:16;;;;;;;12.32;4.43;;;;;;;8.82;100.00;98483.13;5029680;28;20037;-45
2022/11/17 00:14:35;;;;;;;10.75;3.97;;;;;;;8.77;100.00;98480.31;5035267;28;20384;-43
2022/11/17 00:17:02;;;;;;;14.98;3.80;;;;;;;8.78;100.00;98468.53;5030363;28;20443;-42
2022/11/17 00:22:12;;;;;;;14.73;3.55;;;;;;;8.86;100.00;98445.94;5049028;28;20556;-45
2022/11/17 00:24:37;;;;;;;10.85;3.50;;;;;;;8.83;100.00;98449.06;5038939;28;20373;-44
2022/11/17 00:27:02;;;;;;;13.82;4.03;;;;;;;8.82;100.00;98445.59;5048816;28;20056;-44
2022/11/17 00:29:28;;;;;;;8.88;4.00;;;;;;;8.83;100.00;98451.75;5046420;28;20025;-44
2022/11/17 00:34:38;;;;;;;9.80;3.30;;;;;;;8.82;100.00;98450.94;5036154;28;20131;-42
2022/11/17 00:37:04;;;;;;;12.75;3.20;;;;;;;8.84;100.00;98472.97;5030602;28;20476;-44
2022/11/17 00:39:29;;;;;;;10.52;3.15;;;;;;;8.85;100.00;98439.75;5034208;28;20025;-45
2022/11/17 00:41:55;;;;;;;9.15;3.50;;;;;;;8.89;100.00;98427.50;5048888;28;20399;-43
2022/11/17 00:44:20;;;;;;;8.73;3.40;;;;;;;8.90;100.00;98426.47;5038694;28;20041;-44
2022/11/17 00:46:46;;;;;;;18.33;4.78;;;;;;;8.90;100.00;98426.47;5029866;28;20040;-41
2022/11/17 00:49:11;;;;;;;8.93;3.45;;;;;;;8.89;100.00;98435.53;5039480;28;20056;-42
2022/11/17 00:51:37;;;;;;;14.23;3.65;;;;;;;8.92;100.00;98405.56;5036933;28;20482;-43
2022/11/17 00:54:03;;;;;;;6.50;3.47;;;;;;;8.93;100.00;98409.91;5048964;28;20503;-45
2022/11/17 00:56:29;;;;;;;7.57;2.80;;;;;;;8.93;100.00;98414.47;5028406;28;20063;-43
2022/11/17 00:58:55;;;;;;;6.25;3.22;;;;;;;8.92;100.00;98394.84;5041607;28;20095;-45
2022/11/17 01:01:21;;;;;;;4.18;2.58;;;;;;;8.95;100.00;98389.03;5030946;28;20017;-44
2022/11/17 01:03:46;;;;;;;11.30;2.63;;;;;;;8.99;100.00;98387.50;5029480;28;20076;-45
2022/11/17 01:06:14;;;;;;;9.85;3.17;;;;;;;9.05;100.00;98401.06;5046244;28;20135;-41
2022/11/17 01:08:40;;;;;;;5.80;2.65;;;;;;;9.06;100.00;98376.69;5043977;28;20029;-41
2022/11/17 01:11:07;;;;;;;5.10;2.83;;;;;;;9.08;100.00;98360.34;5039571;28;20060;-41
2022/11/17 01:13:33;;;;;;;7.95;2.85;;;;;;;9.09;100.00;98367.34;5034934;28;20109;-42
2022/11/17 01:16:09;;;;;;;4.22;2.58;;;;;;;9.06;100.00;98375.84;5043993;28;20076;-42
2022/11/17 01:18:35;;;;;;;3.72;2.40;;;;;;;9.08;100.00;98371.88;5045306;28;20384;-40
2022/11/17 01:21:07;;;;;;;7.00;2.97;;;;;;;9.12;100.00;98385.66;5033620;28;20124;-45
2022/11/17 01:23:32;;;;;;;5.63;2.50;;;;;;;9.14;100.00;98378.22;5016305;28;20372;-40
2022/11/17 01:26:11;;;;;;;5.20;2.38;;;;;;;9.12;100.00;98375.75;5049278;28;20037;-45
2022/11/17 01:28:37;;;;;;;12.00;3.08;;;;;;;9.15;100.00;98372.59;5045637;28;20037;-48
2022/11/17 01:31:09;;;;;;;7.32;2.95;;;;;;;9.15;100.00;98358.34;5047593;28;20476;-44
2022/11/17 01:33:34;;;;;;;9.32;2.70;;;;;;;9.21;100.00;98357.41;5031852;28;20060;-43
2022/11/17 01:36:27;;;;;;;7.32;2.58;;;;;;;9.23;100.00;98341.91;5048748;28;20056;-42
2022/11/17 01:38:52;;;;;;;4.10;2.50;;;;;;;9.31;100.00;98357.66;5031450;28;20059;-42
2022/11/17 01:41:26;;;;;;;4.18;2.03;;;;;;;9.35;100.00;98342.72;5052265;28;20475;-39
2022/11/17 01:44:33;;;;;;;7.97;2.38;;;;;;;9.35;100.00;98337.34;5050570;28;20029;-42
2022/11/17 01:46:58;;;;;;;6.28;2.40;;;;;;;9.37;100.00;98346.00;5033943;28;20065;-39
2022/11/17 01:49:27;;;;;;;3.78;2.22;;;;;;;9.41;100.00;98325.66;5046103;28;20065;-38
2022/11/17 01:52:00;;;;;;;4.28;2.50;;;;;;;9.49;100.00;98321.78;5034618;28;20041;-40
2022/11/17 01:54:27;;;;;;;8.63;2.50;;;;;;;9.45;100.00;98315.25;5041938;28;20094;-40
2022/11/17 01:56:57;;;;;;;3.97;2.30;;;;;;;9.51;100.00;98318.88;5046866;28;20051;-42
2022/11/17 01:59:33;;;;;;;5.55;2.50;;;;;;;9.52;100.00;98320.50;5043430;28;20040;-42
2022/11/17 02:01:58;;;;;;;5.63;2.42;;;;;;;9.56;100.00;98305.56;5038465;28;20021;-41
2022/11/17 02:04:30;;;;;;;7.70;2.63;;;;;;;9.59;100.00;98305.09;5045466;28;20494;-44
2022/11/17 02:07:03;;;;;;;10.07;3.13;;;;;;;9.59;100.00;98292.47;5033174;28;20037;-42
2022/11/17 02:09:29;;;;;;;6.30;2.85;;;;;;;9.61;100.00;98286.84;5036232;28;20033;-41
2022/11/17 02:11:56;;;;;;;5.13;3.08;;;;;;;9.61;100.00;98285.00;5032256;28;20035;-39
2022/11/17 02:14:22;;;;;;;6.38;3.40;;;;;;;9.61;100.00;98270.72;5040879;28;20402;-39
2022/11/17 02:16:47;;;;;;;8.82;3.67;;;;;;;9.63;100.00;98282.88;5033509;28;20037;-40
2022/11/17 02:19:13;;;;;;;8.85;2.97;;;;;;;9.62;100.00;98285.81;5041216;28;20033;-37
2022/11/17 02:22:16;;;;;;;5.05;2.65;;;;;;;9.63;100.00;98290.13;5039162;28;20056;-36
2022/11/17 02:24:49;;;;;;;7.45;3.05;;;;;;;9.62;100.00;98286.63;5033809;28;20286;-36
2022/11/17 02:28:01;;;;;;;8.60;2.78;;;;;;;9.62;100.00;98283.94;5037468;28;20030;-36
2022/11/17 02:30:34;;;;;;;5.72;3.10;;;;;;;9.64;100.00;98287.22;5018145;28;20033;-37
2022/11/17 02:33:02;;;;;;;8.30;2.97;;;;;;;9.67;100.00;98291.28;5043776;28;20041;-36
2022/11/17 02:35:39;;;;;;;6.40;2.90;;;;;;;9.69;100.00;98283.81;5044469;28;20035;-36
2022/11/17 02:38:42;;;;;;;6.72;2.22;;;;;;;9.71;100.00;98287.06;5036004;28;20025;-37
2022/11/17 02:41:10;;;;;;;10.13;2.35;;;;;;;9.74;100.00;98269.66;5036705;28;20029;-36
2022/11/17 02:44:05;;;;;;;14.45;2.30;;;;;;;9.76;100.00;98262.97;5040069;28;20112;-37
2022/11/17 02:46:44;;;;;;;4.07;1.88;;;;;;;9.76;100.00;98262.16;5035078;28;20056;-37
2022/11/17 02:49:19;;;;;;;9.05;2.50;;;;;;;9.76;100.00;98278.28;5038127;28;20049;-37
2022/11/17 02:51:48;;;;;;;10.23;2.60;;;;;;;9.76;100.00;98268.34;5038674;28;20036;-37
2022/11/17 02:54:13;;;;;;;11.30;2.97;;;;;;;9.74;100.00;98251.69;5051138;28;20443;-36
2022/11/17 02:56:40;;;;;;;10.00;2.30;;;;;;;9.76;100.00;98241.50;5053833;28;20028;-35
2022/11/17 02:59:06;;;;;;;14.38;2.22;;;;;;;9.79;100.00;98246.38;5043131;28;20041;-37
2022/11/17 03:01:53;;;;;;;5.25;1.98;;;;;;;9.80;100.00;98237.28;5047005;28;20483;-36
2022/11/17 03:04:30;;;;;;;13.32;2.33;;;;;;;9.80;100.00;98236.47;5050560;28;20096;-37
2022/11/17 03:07:13;;;;;;;8.10;2.05;;;;;;;9.81;100.00;98238.91;5053016;28;20064;-35
2022/11/17 03:09:56;;;;;;;12.80;2.15;;;;;;;9.85;100.00;98240.06;5051996;28;20114;-36
2022/11/17 03:12:32;;;;;;;9.07;1.73;;;;;;;9.86;100.00;98214.81;5051786;28;20100;-36
2022/11/17 03:15:03;;;;;;;8.57;1.80;;;;;;;9.95;100.00;98217.09;5050227;28;20108;-37
2022/11/17 03:17:30;;;;;;;14.38;2.03;;;;;;;9.96;100.00;98213.38;5044381;28;20025;-37
2022/11/17 03:20:04;;;;;;;8.67;1.90;;;;;;;10.00;100.00;98209.94;5041894;28;20079;-36
2022/11/17 03:22:46;;;;;;;6.85;1.55;;;;;;;10.00;100.00;98203.75;5052089;28;20051;-36
2022/11/17 03:25:16;;;;;;;5.90;1.35;;;;;;;10.03;100.00;98203.28;5033155;28;20034;-36
2022/11/17 03:27:47;;;;;;;5.35;1.73;;;;;;;10.06;100.00;98197.44;5043859;28;20043;-36
2022/11/17 03:30:14;;;;;;;11.25;1.83;;;;;;;10.04;100.00;98189.59;5049352;28;20056;-38
2022/11/17 03:32:41;;;;;;;5.45;1.50;;;;;;;10.08;100.00;98176.47;5045228;28;20475;-37
2022/11/17 03:35:10;;;;;;;7.18;1.65;;;;;;;10.11;100.00;98178.72;5039413;28;20029;-42
2022/11/17 03:37:39;;;;;;;7.65;1.98;;;;;;;10.17;100.00;98183.09;5013954;28;20064;-42
2022/11/17 03:40:08;;;;;;;10.85;2.00;;;;;;;10.16;100.00;98165.31;5044964;28;20025;-42
2022/11/17 03:42:36;;;;;;;10.93;1.80;;;;;;;10.12;100.00;98172.25;5049438;28;20033;-43
2022/11/17 03:45:10;;;;;;;5.80;1.35;;;;;;;10.15;100.00;98162.91;5037820;28;20084;-43
2022/11/17 03:47:35;;;;;;;5.47;1.38;;;;;;;10.14;100.00;98156.72;5044952;28;20051;-43
2022/11/17 03:50:12;;;;;;;10.90;3.03;;;;;;;10.16;100.00;98170.69;5046586;28;20029;-43
2022/11/17 03:52:37;;;;;;;6.00;1.33;;;;;;;10.19;100.00;98164.84;5048260;28;20132;-43
2022/11/17 03:55:04;;;;;;;6.70;1.23;;;;;;;10.18;100.00;98171.28;5047608;28;20152;-42
2022/11/17 03:57:37;;;;;;;7.57;1.60;;;;;;;10.13;100.00;98178.44;5048144;28;20087;-43
2022/11/17 04:00:09;;;;;;;7.43;1.58;;;;;;;10.11;100.00;98176.03;5044133;28;20039;-43
2022/11/17 04:02:34;;;;;;;9.18;1.85;;;;;;;10.08;100.00;98163.06;5029344;28;20098;-47
2022/11/17 04:05:06;;;;;;;13.15;1.83;;;;;;;10.02;100.00;98169.41;5029486;28;20036;-42
2022/11/17 04:07:39;;;;;;;8.88;1.65;;;;;;;9.96;100.00;98156.97;5036132;28;20382;-43
2022/11/17 04:10:05;;;;;;;9.85;1.70;;;;;;;9.89;100.00;98165.16;5037203;28;20487;-45
2022/11/17 04:17:58;;;;;;;8.80;1.30;;;;;;;9.77;100.00;98167.09;5039730;28;20045;-48
2022/11/17 04:20:24;;;;;;;15.38;1.65;;;;;;;9.74;100.00;98165.72;5037461;28;20021;-47
2022/11/17 04:23:05;;;;;;;19.45;2.10;;;;;;;9.71;100.00;98163.50;5048731;28;20044;-43
2022/11/17 04:28:36;;;;;;;7.85;1.80;;;;;;;9.66;100.00;98158.03;5032532;28;20040;-46
2022/11/17 04:31:06;;;;;;;9.18;1.27;;;;;;;9.67;100.00;98155.13;5041533;28;20036;-43
2022/11/17 04:33:32;;;;;;;7.78;1.50;;;;;;;9.65;100.00;98175.22;5030386;28;20036;-43
2022/11/17 04:35:57;;;;;;;6.22;1.40;;;;;;;9.61;100.00;98153.41;5033122;28;20033;-43
2022/11/17 04:38:22;;;;;;;7.22;1.40;;;;;;;9.60;100.00;98148.28;5030269;28;20486;-46
2022/11/17 04:43:31;;;;;;;8.48;1.50;;;;;;;9.63;100.00;98139.72;5044764;28;20387;-42
2022/11/17 04:46:00;;;;;;;7.00;1.55;;;;;;;9.60;100.00;98127.59;5036227;28;20025;-42
2022/11/17 04:48:26;;;;;;;7.38;1.50;;;;;;;9.57;100.00;98125.41;5033955;28;20029;-45
2022/11/17 04:50:53;;;;;;;5.53;1.58;;;;;;;9.58;100.00;98123.53;5033188;28;20037;-44
2022/11/17 04:53:18;;;;;;;7.75;1.30;;;;;;;9.57;100.00;98141.53;5045896;28;20037;-41
2022/11/17 04:55:44;;;;;;;9.13;1.60;;;;;;;9.59;100.00;98123.31;5042801;28;20033;-40
2022/11/17 04:58:09;;;;;;;13.10;1.67;;;;;;;9.58;100.00;98127.03;5033692;28;20025;-44
2022/11/17 05:00:34;;;;;;;5.88;1.50;;;;;;;9.60;100.00;98111.50;5035600;28;20036;-40
2022/11/17 05:03:00;;;;;;;5.55;1.35;;;;;;;9.64;100.00;98103.78;5032887;28;20367;-46
2022/11/17 05:05:25;;;;;;;7.28;1.63;;;;;;;9.63;100.00;98124.44;5032837;28;20089;-45
2022/11/17 05:07:50;;;;;;;2.00;1.35;;;;;;;9.68;100.00;98112.97;5028582;28;20108;-45
2022/11/17 05:13:20;;;;;;;5.95;1.73;;;;;;;9.70;100.00;98102.81;5035415;28;20184;-45
2022/11/17 05:18:29;;;;;;;6.68;1.77;;;;;;;9.78;100.00;98117.72;5029056;28;20075;-46
2022/11/17 05:21:03;;;;;;;5.18;1.70;;;;;;;9.79;100.00;98106.69;5033160;28;20480;-45
2022/11/17 05:26:12;;;;;;;8.05;2.65;;;;;;;9.82;100.00;98116.97;5033666;28;20477;-45
2022/11/17 05:28:37;;;;;;;9.15;2.42;;;;;;;9.82;100.00;98125.03;5039256;28;20116;-43
2022/11/17 05:31:03;;;;;;;13.82;2.30;;;;;;;9.83;100.00;98117.78;5047283;28;20554;-40
2022/11/17 05:33:28;;;;;;;11.88;2.47;;;;;;;9.88;100.00;98113.31;5035527;28;20025;-42
2022/11/17 05:35:53;;;;;;;4.03;1.98;;;;;;;9.89;100.00;98123.00;5045550;28;20032;-41
2022/11/17 05:38:19;;;;;;;6.68;2.25;;;;;;;9.89;100.00;98116.81;5037556;28;20444;-44
2022/11/17 05:40:44;;;;;;;13.48;2.90;;;;;;;9.89;100.00;98112.25;5035664;28;20049;-44
2022/11/17 05:43:09;;;;;;;6.07;2.35;;;;;;;9.85;100.00;98116.50;5027451;28;20527;-43
2022/11/17 05:45:35;;;;;;;8.77;2.30;;;;;;;9.85;100.00;98115.69;5034804;28;20021;-40
2022/11/17 05:48:00;;;;;;;10.75;2.50;;;;;;;9.85;100.00;98104.94;5031249;28;20033;-41
2022/11/17 05:50:25;;;;;;;9.38;2.53;;;;;;;9.85;100.00;98111.13;5032653;28;20663;-40
2022/11/17 05:52:50;;;;;;;5.60;2.15;;;;;;;9.86;100.00;98112.72;5048008;28;20502;-39
2022/11/17 05:55:16;;;;;;;8.65;2.95;;;;;;;9.84;100.00;98114.84;5038157;28;20032;-42
2022/11/17 05:57:42;;;;;;;11.30;2.63;;;;;;;9.84;100.00;98098.72;5051541;28;20429;-44
2022/11/17 06:00:08;;;;;;;9.38;2.45;;;;;;;9.85;100.00;98111.13;5047529;28;20037;-47
2022/11/17 06:02:40;;;;;;;12.90;2.50;;;;;;;9.85;100.00;98116.50;5028803;28;20174;-44
2022/11/17 06:05:06;;;;;;;10.57;2.97;;;;;;;9.84;100.00;98120.22;5048289;28;20036;-46
2022/11/17 06:07:33;;;;;;;6.03;2.60;;;;;;;9.83;100.00;98123.16;5048542;28;20090;-44
2022/11/17 06:09:59;;;;;;;9.48;2.88;;;;;;;9.78;100.00;98131.94;5032421;28;20115;-49
2022/11/17 06:12:24;;;;;;;7.93;2.25;;;;;;;9.77;100.00;98114.22;5031641;28;20088;-42
2022/11/17 06:14:49;;;;;;;10.85;2.53;;;;;;;9.72;100.00;98124.88;5032558;28;20524;-42
2022/11/17 06:17:24;;;;;;;6.43;1.70;;;;;;;9.66;100.00;98121.28;5031399;28;20032;-41
2022/11/17 06:20:04;;;;;;;12.50;1.83;;;;;;;9.60;100.00;98121.44;5029904;28;20060;-40
2022/11/17 06:22:30;;;;;;;5.45;1.90;;;;;;;9.55;100.00;98127.50;5031367;28;20026;-41
2022/11/17 06:24:57;;;;;;;11.30;1.52;;;;;;;9.55;100.00;98132.06;5032680;28;20472;-40
2022/11/17 06:27:24;;;;;;;10.88;2.55;;;;;;;9.55;100.00;98115.97;5030905;28;20029;-39
2022/11/17 06:29:50;;;;;;;8.83;1.93;;;;;;;9.52;100.00;98122.63;5032205;28;20749;-40
2022/11/17 06:32:16;;;;;;;9.88;2.13;;;;;;;9.52;100.00;98117.25;5052265;28;20070;-37
2022/11/17 06:34:42;;;;;;;11.95;2.53;;;;;;;9.54;100.00;98106.28;5050670;28;20025;-38
2022/11/17 06:37:10;;;;;;;10.82;1.95;;;;;;;9.49;100.00;98125.00;5032306;28;20171;-38
2022/11/17 06:39:36;;;;;;;;;;;;;;;9.50;100.00;98118.56;5034097;28;20488;-36
2022/11/17 06:42:01;;;;;;;11.05;2.13;;;;;;;9.50;100.00;98122.06;5050263;28;19920;-38
2022/11/17 06:44:26;;;;;;;9.60;2.05;;;;;;;9.50;100.00;98124.75;5052326;28;20037;-38
2022/11/17 06:46:52;;;;;;;7.10;1.55;;;;;;;9.54;100.00;98114.34;5054583;28;20468;-37
2022/11/17 06:49:17;;;;;;;5.70;1.50;;;;;;;9.55;100.00;98116.78;5044084;28;20254;-37
2022/11/17 06:51:43;;;;;;;5.22;1.30;;;;;;;9.52;100.00;98124.50;5052095;28;20118;-36
2022/11/17 06:54:11;;;;;;;8.35;1.52;;;;;;;9.48;100.00;98120.66;5050928;28;20116;-36
2022/11/17 06:56:36;;;;;;;4.45;1.40;;;;;;;9.47;100.00;98124.41;5029890;28;20078;-45
2022/11/17 06:59:01;;;;;;;8.88;1.60;;;;;;;9.44;100.00;98120.34;5043033;28;20047;-47
2022/11/17 07:01:27;;;;;;;4.18;1.42;;;;;;;9.40;100.00;98121.88;5050412;28;20048;-45
2022/11/17 07:03:52;;;;;;;4.35;1.75;;;;;;;9.34;100.00;98115.59;5046911;28;20025;-43
2022/11/17 07:06:17;;;;;;;7.15;2.05;;;;;;;9.30;100.00;98117.16;5049482;28;20036;-46
2022/11/17 07:08:44;;;;;;;4.55;1.60;;;;;;;9.31;100.00;98126.00;5048357;28;20132;-47
2022/11/17 07:11:12;;;;;;;7.07;1.75;;;;;;;9.29;100.00;98118.19;5044856;28;20104;-47
2022/11/17 07:13:37;;;;;;;;;;;;;;;9.26;100.00;98118.66;5035359;28;20423;-47
2022/11/17 07:16:04;;;;;;;10.10;1.90;;;;;;;9.21;100.00;98138.16;5041742;28;19982;-46
2022/11/17 07:18:29;;;;;;;4.05;1.70;;;;;;;9.21;100.00;98135.47;5038655;28;20107;-45
2022/11/17 07:20:54;;;;;;;5.40;1.90;;;;;;;9.17;100.00;98141.59;5032547;28;20116;-42
2022/11/17 07:23:20;;;;;;;13.30;1.83;;;;;;;9.18;100.00;98145.91;5040790;28;20029;-42
2022/11/17 07:25:45;;;;;;;7.30;1.98;;;;;;;9.14;100.00;98144.75;5046496;28;20025;-48
2022/11/17 07:28:11;;;;;;;11.65;3.10;;;;;;;9.17;100.00;98146.97;5040508;28;20037;-46
2022/11/17 07:30:36;;;;;;;11.10;2.53;;;;;;;9.16;100.00;98150.69;5043493;28;20146;-44
2022/11/17 07:33:02;;;;;;;11.73;2.40;;;;;;;9.15;100.00;98141.00;5049889;28;20029;-44
2022/11/17 07:35:27;;;;;;;14.02;2.83;;;;;;;9.11;100.00;98164.00;5047621;28;20041;-42
2022/11/17 07:37:57;;;;;;;14.85;2.22;;;;;;;9.07;100.00;98152.13;5047738;28;20029;-43
2022/11/17 07:40:22;;;;;;;9.20;2.90;;;;;;;9.05;100.00;98157.72;5051262;28;20083;-44
2022/11/17 07:42:48;;;;;;;9.23;2.50;;;;;;;9.07;100.00;98157.50;5048000;28;20494;-45
2022/11/17 07:45:14;;;;;;;9.40;3.00;;;;;;;9.04;100.00;98164.16;5034647;28;20076;-46
2022/11/17 07:47:39;;;;;;;8.35;3.40;;;;;;;9.02;100.00;98167.06;5042031;28;20075;-44
2022/11/17 07:50:05;;;;;;;11.75;2.63;;;;;;;9.01;100.00;98164.63;5041208;28;20044;-44
2022/11/17 07:52:30;;;;;;;11.15;2.50;;;;;;;9.01;100.00;98167.31;5037025;28;20056;-46
2022/11/17 07:54:56;;;;;;;5.63;2.35;;;;;;;9.01;100.00;98170.78;5036567;28;20030;-45
2022/11/17 07:57:21;;;;;;;5.30;2.20;;;;;;;8.99;100.00;98178.25;5045147;28;20025;-43
2022/11/17 07:59:46;;;;;;;9.07;2.40;;;;;;;8.97;100.00;98169.63;5042864;28;20375;-48
2022/11/17 08:02:11;;;;;;;7.78;2.50;;;;;;;8.96;100.00;98170.69;5036021;28;20029;-47
2022/11/17 08:04:37;;;;;;;7.25;2.30;;;;;;;8.97;100.00;98169.63;5035396;28;20025;-47
2022/11/17 08:07:02;;;;;;;11.52;2.50;;;;;;;8.95;100.00;98182.50;5041707;28;20033;-44
2022/11/17 08:09:28;;;;;;;10.88;2.60;;;;;;;8.97;100.00;98174.19;5050218;28;20071;-46
2022/11/17 08:11:53;;;;;;;12.90;2.75;;;;;;;8.97;100.00;98171.50;5032764;28;20080;-46
2022/11/17 08:14:18;;;;;;;8.52;2.70;;;;;;;8.95;100.00;98181.66;5038185;28;20099;-47
2022/11/17 08:16:44;;;;;;;14.73;2.42;;;;;;;8.96;100.00;98185.97;5039160;28;20031;-46
2022/11/17 08:19:10;;;;;;;12.52;2.63;;;;;;;8.98;100.00;98182.00;5044346;28;20124;-45
2022/11/17 08:21:36;;;;;;;14.55;2.38;;;;;;;8.98;100.00;98182.00;5034562;28;21315;-46
2022/11/17 08:24:01;;;;;;;19.98;2.50;;;;;;;8.98;100.00;98190.06;5035021;28;20075;-46
2022/11/17 08:26:27;;;;;;;13.85;2.38;;;;;;;8.99;100.00;98189.00;5037028;28;20342;-46
2022/11/17 08:28:52;;;;;;;18.95;3.10;;;;;;;9.00;100.00;98201.38;5035693;28;20061;-41
2022/11/17 08:31:18;;;;;;;15.80;2.55;;;;;;;9.00;100.00;98196.00;5036709;28;20483;-44
2022/11/17 08:33:43;;;;;;;17.85;2.40;;;;;;;9.00;100.00;98204.06;5040185;28;20030;-46
2022/11/17 08:36:08;;;;;;;12.80;2.38;;;;;;;8.97;100.00;98201.00;5045976;28;20488;-44
2022/11/17 08:38:34;;;;;;;13.60;2.55;;;;;;;8.94;100.00;98207.66;5043906;28;20486;-41
2022/11/17 08:41:05;;;;;;;14.07;2.50;;;;;;;8.99;100.00;98210.44;5049671;28;20040;-43
2022/11/17 08:43:30;;;;;;;14.10;2.90;;;;;;;8.97;100.00;98207.19;5034823;28;20124;-45
2022/11/17 08:45:56;;;;;;;15.93;2.45;;;;;;;8.95;100.00;98209.31;5031054;28;20020;-47
2022/11/17 08:48:21;;;;;;;17.50;2.58;;;;;;;8.96;100.00;98184.09;5040527;28;20366;-47
2022/11/17 08:50:47;;;;;;;20.27;2.72;;;;;;;8.93;100.00;98214.09;5038797;28;20036;-43
2022/11/17 08:53:14;;;;;;;13.23;2.65;;;;;;;8.90;100.00;98211.88;5034998;28;20097;-43
2022/11/17 08:55:39;;;;;;;14.18;2.63;;;;;;;8.88;100.00;98219.34;5029323;28;20044;-43
2022/11/17 08:58:05;;;;;;;9.27;1.73;;;;;;;8.93;100.00;98222.13;5045403;28;20021;-45
2022/11/17 09:00:30;;;;;;;14.10;2.42;;;;;;;8.90;100.00;98227.97;5047105;28;20061;-45
2022/11/17 09:02:55;;;;;;;14.52;2.10;;;;;;;8.85;100.00;98219.00;5042257;28;20087;-45
2022/11/17 09:05:22;;;;;;;11.18;1.70;;;;;;;8.85;100.00;98222.50;5025802;28;20021;-45
2022/11/17 09:07:47;;;;;;;8.65;1.63;;;;;;;8.85;100.00;98235.91;5048550;28;20040;-45
2022/11/17 09:10:13;;;;;;;9.55;1.60;;;;;;;8.86;100.00;98252.81;5049698;28;20029;-45
2022/11/17 09:12:38;;;;;;;5.82;1.25;;;;;;;8.89;100.00;98239.75;5030738;28;20117;-46
2022/11/17 09:15:04;;;;;;;10.50;2.10;;;;;;;8.92;100.00;98247.31;5033665;28;20041;-44
2022/11/17 09:17:30;;;;;;;9.57;1.70;;;;;;;8.92;100.00;98250.00;5032627;28;20025;-44
2022/11/17 09:19:55;;;;;;;13.55;1.75;;;;;;;8.87;100.00;98254.44;5045662;28;20090;-45
2022/11/17 09:22:21;;;;;;;10.20;2.15;;;;;;;8.87;100.00;98252.56;5039475;28;20022;-46
2022/11/17 09:24:46;;;;;;;10.13;2.38;;;;;;;8.90;100.00;98252.13;5038854;28;20120;-46
2022/11/17 09:27:12;;;;;;;11.55;1.92;;;;;;;8.87;100.00;98262.47;5039660;28;20432;-47
2022/11/17 09:29:38;;;;;;;9.13;1.95;;;;;;;8.88;100.00;98248.84;5037274;28;20421;-44
2022/11/17 09:32:03;;;;;;;4.80;1.58;;;;;;;8.85;100.00;98273.47;5045013;28;20079;-42
2022/11/17 09:34:29;;;;;;;9.77;1.98;;;;;;;8.87;100.00;98257.94;5040074;28;20044;-42
2022/11/17 09:36:54;;;;;;;14.25;2.45;;;;;;;8.90;100.00;98275.41;5043360;28;20029;-45
2022/11/17 09:39:20;;;;;;;12.07;2.42;;;;;;;8.85;100.00;98278.00;5045438;28;20508;-40
2022/11/17 09:41:47;;;;;;;10.25;2.55;;;;;;;8.85;100.00;98276.13;5036986;28;20041;-40
2022/11/17 09:44:38;;;;;;;14.68;2.80;;;;;;;8.83;100.00;98294.31;5039631;28;20108;-40
2022/11/17 09:47:12;;;;;;;8.18;2.28;;;;;;;8.83;100.00;98291.66;5038498;28;20079;-39
2022/11/17 09:49:57;;;;;;;14.15;2.97;;;;;;;8.88;100.00;98299.00;5040987;28;20041;-42
2022/11/17 09:52:28;;;;;;;11.85;2.80;;;;;;;8.84;100.00;98309.34;5045052;28;20033;-39
2022/11/17 09:54:59;;;;;;;11.43;3.03;;;;;;;8.82;100.00;98306.13;5035052;28;20029;-41
2022/11/17 09:57:40;;;;;;;10.07;2.58;;;;;;;8.84;100.00;98320.09;5041454;28;20067;-40
2022/11/17 10:00:14;;;;;;;10.32;2.08;;;;;;;8.84;100.00;98320.09;5036216;28;20043;-39
2022/11/17 10:02:40;;;;;;;13.95;3.03;;;;;;;8.88;100.00;98313.22;5041327;28;20403;-40
2022/11/17 10:05:12;;;;;;;20.77;3.22;;;;;;;8.96;100.00;98312.88;5039484;28;20030;-41
2022/11/17 10:07:45;;;;;;;14.02;2.67;;;;;;;8.96;100.00;98312.88;5029378;28;20037;-40
2022/11/17 10:10:14;;;;;;;11.00;2.40;;;;;;;8.97;100.00;98335.13;5047532;28;20048;-40
2022/11/17 10:12:43;;;;;;;14.10;2.40;;;;;;;8.93;100.00;98345.53;5032111;28;20491;-44
2022/11/17 10:15:21;;;;;;;15.60;2.42;;;;;;;8.96;100.00;98325.47;5046613;28;20045;-40
2022/11/17 10:17:46;;;;;;;19.50;2.77;;;;;;;8.94;100.00;98320.31;5042313;28;20026;-44
2022/11/17 10:20:14;;;;;;;10.40;2.03;;;;;;;8.94;100.00;98341.78;5031043;28;20700;-43
2022/11/17 10:22:40;;;;;;;8.27;1.60;;;;;;;8.97;100.00;98316.38;5042041;28;20032;-42
2022/11/17 10:25:19;;;;;;;11.77;1.73;;;;;;;8.94;100.00;98325.69;5023900;28;20037;-39
2022/11/17 10:27:51;;;;;;;14.68;2.25;;;;;;;8.96;100.00;98334.31;5042642;28;20120;-41
2022/11/17 10:30:22;;;;;;;21.58;2.53;;;;;;;8.97;100.00;98341.31;5042246;28;20032;-41
2022/11/17 10:32:58;;;;;;;9.18;1.40;;;;;;;8.96;100.00;98333.53;5042935;28;20029;-42
2022/11/17 10:35:30;;;;;;;10.88;1.95;;;;;;;8.96;100.00;98328.97;5036230;28;20480;-41
2022/11/17 10:38:02;;;;;;;14.75;1.63;;;;;;;8.92;100.00;98343.88;5041161;28;20039;-45
2022/11/17 10:40:32;;;;;;;10.98;2.47;;;;;;;8.92;100.00;98346.56;5024206;28;20080;-41
2022/11/17 10:43:04;;;;;;;16.77;2.53;;;;;;;8.84;100.00;98344.22;5037271;28;20033;-44
2022/11/17 10:45:31;;;;;;;14.68;2.60;;;;;;;8.77;100.00;98362.31;5038840;28;20063;-45
2022/11/17 10:48:32;;;;;;;8.77;2.03;;;;;;;8.70;100.00;98357.03;5045623;28;20029;-46
2022/11/17 10:51:00;;;;;;;9.90;2.22;;;;;;;8.70;100.00;98366.97;5028845;28;20045;-47
2022/11/17 10:53:27;;;;;;;13.07;2.40;;;;;;;8.69;100.00;98381.38;5036613;28;20036;-45
2022/11/17 10:56:14;;;;;;;13.15;2.10;;;;;;;8.65;100.00;98364.16;5039101;28;20549;-46
2022/11/17 10:58:58;;;;;;;12.67;2.10;;;;;;;8.66;100.00;98365.75;5032202;28;20064;-43
2022/11/17 11:01:31;;;;;;;9.93;2.13;;;;;;;8.67;100.00;98367.41;5036289;28;20781;-43
2022/11/17 11:03:56;;;;;;;13.27;1.63;;;;;;;8.71;100.00;98366.72;5035795;28;20136;-41
2022/11/17 11:06:25;;;;;;;9.30;2.05;;;;;;;8.75;100.00;98373.25;5036019;28;20041;-39
2022/11/17 11:08:55;;;;;;;14.35;1.70;;;;;;;8.78;100.00;98382.72;5038495;28;20111;-40
2022/11/17 11:11:41;;;;;;;10.02;1.30;;;;;;;8.82;100.00;98381.22;5038539;28;20033;-41
2022/11/17 11:14:30;;;;;;;8.30;1.40;;;;;;;8.81;100.00;98394.84;5041726;28;20279;-40
2022/11/17 11:16:56;;;;;;;10.20;1.45;;;;;;;8.85;100.00;98406.75;5043326;28;20028;-38
2022/11/17 11:19:21;;;;;;;16.05;1.73;;;;;;;8.83;100.00;98385.50;5031776;28;20041;-37
2022/11/17 11:22:20;;;;;;;12.55;1.58;;;;;;;8.79;100.00;98387.00;5030764;28;20028;-41
2022/11/17 11:25:04;;;;;;;8.35;1.50;;;;;;;8.76;100.00;98393.66;5042580;28;20021;-38
2022/11/17 11:27:41;;;;;;;8.50;1.10;;;;;;;8.77;100.00;98416.75;5045758;28;20025;-37
2022/11/17 11:30:12;;;;;;;14.38;1.58;;;;;;;8.78;100.00;98407.66;5039492;28;20083;-41
2022/11/17 11:33:00;;;;;;;9.75;1.60;;;;;;;8.79;100.00;98398.56;5040335;28;20029;-42
2022/11/17 11:35:37;;;;;;;8.05;1.55;;;;;;;8.85;100.00;98412.94;5043949;28;20307;-38
2022/11/17 11:38:21;;;;;;;12.60;1.40;;;;;;;8.88;100.00;98407.09;5047716;28;20075;-37
2022/11/17 11:41:05;;;;;;;9.30;1.50;;;;;;;8.91;100.00;98409.31;5037667;28;20163;-38
2022/11/17 11:43:40;;;;;;;10.35;1.52;;;;;;;8.97;100.00;98418.31;5050868;28;20088;-36
2022/11/17 11:46:18;;;;;;;9.98;1.70;;;;;;;8.96;100.00;98414.00;5048550;28;20487;-37
2022/11/17 11:48:46;;;;;;;11.43;2.28;;;;;;;8.99;100.00;98417.03;5038201;28;20567;-37
2022/11/17 11:51:17;;;;;;;7.80;1.63;;;;;;;9.01;100.00;98422.16;5059408;28;20039;-38
2022/11/17 11:53:50;;;;;;;11.02;1.40;;;;;;;9.00;100.00;98445.50;5033339;28;20291;-36
2022/11/17 11:56:34;;;;;;;5.57;1.20;;;;;;;8.97;100.00;98437.88;5055285;28;20068;-37
2022/11/17 11:59:15;;;;;;;6.53;1.45;;;;;;;8.98;100.00;98425.31;5041708;28;20348;-38
2022/11/17 12:01:40;;;;;;;9.25;1.60;;;;;;;9.00;100.00;98429.41;5037620;28;20356;-37
2022/11/17 12:04:14;;;;;;;14.98;1.95;;;;;;;9.00;100.00;98432.09;5045023;28;20071;-39
2022/11/17 12:07:06;;;;;;;8.30;1.90;;;;;;;9.00;100.00;98437.47;5041476;28;20041;-39
2022/11/17 12:09:31;;;;;;;7.90;2.05;;;;;;;9.01;100.00;98449.00;5048737;28;20068;-44